Samadhi — ZCOY9 — position and weather

sailwx.info

Track history (hours):
 
Tides and Currents Weather Stations Pressure Air Temp Water Temp Dewpoint Dewpoint Depression Visibility Wind Speed Wind Dir Waves Ship Positions

Samadhi

Last reported at 2017-Jun-25 00:38 UTC. Time now 2017-Jun-25 15:40 UTC.
Position N 43°12' E 009°19'.

Length 60 m; draft 3.3 m.

Type: Pleasure craft. MMSI: 319420000.

Date/timePositionNaut miles runAvg speedWind from/ knotsBaromVisibWave heightAir tempDewpointWater temp
2017-Jun-25 00:38N 43°12' E 009°19'213.3
2017-Jun-25 00:30N 43°12' E 009°16'813.3
2017-Jun-24 23:56N 43°14' E 009°06'613.3
2017-Jun-24 23:31N 43°16' E 008°59'713.5
2017-Jun-24 22:58N 43°18' E 008°49'2513.2
2017-Jun-24 21:05N 43°25' E 008°16'213.3
2017-Jun-24 20:56N 43°26' E 008°14'47 2.2
2017-Jun-23 23:35N 43°29' E 007°09'112.5
2017-Jun-23 23:30N 43°28' E 007°08'612.4
2017-Jun-23 23:00N 43°24' E 007°02'  
2017-Jun-20 14:48N 43°15' E 006°44'1 0.2
2017-Jun-20 10:30N 43°15' E 006°44'15 1.3
2017-Jun-19 23:12N 43°25' E 006°59'313.1
2017-Jun-19 23:00N 43°27' E 007°02'1013.2
2017-Jun-19 22:15N 43°34' E 007°12'513.1
2017-Jun-19 21:54N 43°37' E 007°16'6 1.3
2017-Jun-19 16:45N 43°42' E 007°21'0 0.0
2017-Jun-19 16:30N 43°42' E 007°21'0 0.0
2017-Jun-19 16:00N 43°42' E 007°21'0 0.0
2017-Jun-19 15:30N 43°42' E 007°21'0 0.0
2017-Jun-19 15:00N 43°42' E 007°21'0 0.0
2017-Jun-19 14:30N 43°42' E 007°21'11 0.6
2017-Jun-18 18:35N 43°34' E 007°10'2 9.9
2017-Jun-18 18:25N 43°33' E 007°09'2 0.3
2017-Jun-18 11:31N 43°33' E 007°06'0 2.7
2017-Jun-18 11:26N 43°33' E 007°06'5 7.5
2017-Jun-18 10:46N 43°36' E 007°11'310.8
2017-Jun-18 10:30N 43°37' E 007°15'713.6
2017-Jun-18 10:00N 43°34' E 007°24'1213.1
2017-Jun-18 09:04N 43°34' E 007°41'113.1
2017-Jun-18 09:01N 43°35' E 007°41'23 2.5
2017-Jun-17 23:47N 43°53' E 008°01'0 0.0
2017-Jun-17 23:26N 43°53' E 008°01'0 0.0
2017-Jun-17 16:44N 43°53' E 008°01'0 0.0
2017-Jun-17 06:59N 43°53' E 008°01'0 0.0
2017-Jun-17 06:26N 43°53' E 008°01'0 0.0
2017-Jun-17 05:56N 43°53' E 008°01'0 0.0
2017-Jun-17 05:29N 43°53' E 008°01'0 0.0
2017-Jun-17 04:56N 43°53' E 008°01'0 0.0
2017-Jun-17 04:14N 43°53' E 008°01'0 0.0
2017-Jun-17 03:53N 43°53' E 008°01'0 0.0
2017-Jun-17 03:23N 43°53' E 008°01'0 0.0
2017-Jun-17 02:53N 43°53' E 008°01'0 0.0
2017-Jun-16 20:47N 43°53' E 008°01'0 0.0
2017-Jun-16 20:26N 43°53' E 008°01'0 0.0
2017-Jun-16 19:59N 43°53' E 008°01'0 0.0
2017-Jun-16 19:29N 43°53' E 008°01'0 0.0
2017-Jun-16 18:59N 43°53' E 008°01'0 0.0
2017-Jun-16 18:29N 43°53' E 008°01'0 0.0
2017-Jun-16 17:56N 43°53' E 008°01'0 0.0
2017-Jun-16 17:29N 43°53' E 008°01'0 0.0
2017-Jun-16 16:44N 43°53' E 008°01'0 0.0
2017-Jun-16 16:29N 43°53' E 008°01'0 0.0
2017-Jun-16 15:56N 43°53' E 008°01'0 0.0
2017-Jun-16 15:20N 43°53' E 008°01'0 0.0
2017-Jun-16 14:50N 43°53' E 008°01'0 0.0
2017-Jun-16 14:08N 43°53' E 008°01'0 0.0
2017-Jun-16 13:20N 43°53' E 008°01'0 0.0
2017-Jun-16 12:35N 43°53' E 008°01'0 0.0
2017-Jun-16 12:26N 43°53' E 008°01'0 0.0
2017-Jun-16 11:26N 43°53' E 008°01'0 0.0
2017-Jun-16 10:59N 43°53' E 008°01'0 0.0
2017-Jun-16 10:29N 43°53' E 008°01'0 0.0
2017-Jun-16 09:53N 43°53' E 008°01'0 0.0
2017-Jun-16 09:26N 43°53' E 008°01'0 0.0
2017-Jun-16 08:56N 43°53' E 008°01'0 0.0
2017-Jun-16 08:29N 43°53' E 008°01'0 0.0
2017-Jun-16 07:53N 43°53' E 008°01'0 0.0
2017-Jun-16 04:35N 43°53' E 008°01'0 0.0
2017-Jun-16 04:20N 43°53' E 008°01'0 0.0
2017-Jun-16 03:59N 43°53' E 008°01'0 0.0
2017-Jun-16 03:26N 43°53' E 008°01'0 0.0
2017-Jun-16 02:47N 43°53' E 008°01'0 0.0
2017-Jun-16 02:29N 43°53' E 008°01'0 0.0
2017-Jun-16 00:38N 43°53' E 008°01'0 0.0
2017-Jun-16 00:17N 43°53' E 008°01'0 0.0
2017-Jun-15 22:35N 43°53' E 008°01'0 0.0
2017-Jun-15 22:29N 43°53' E 008°01'0 0.0
2017-Jun-15 21:56N 43°53' E 008°01'0 0.0
2017-Jun-15 15:46N 43°53' E 008°01'0 0.0
2017-Jun-15 15:28N 43°53' E 008°01'  
Track history (hours):
 
Tides and Currents Weather Stations Pressure Air Temp Water Temp Dewpoint Dewpoint Depression Visibility Wind Speed Wind Dir Waves Ship Positions

Samadhi

Last reported at 2017-Jun-25 00:38 UTC. Time now 2017-Jun-25 15:40 UTC.
Position N 43°12' E 009°19'.

Length 60 m; draft 3.3 m.

Type: Pleasure craft. MMSI: 319420000.

Date/timePositionNaut miles runAvg speedWind from/ knotsBaromVisibWave heightAir tempDewpointWater temp
2017-Jun-25 00:38N 43°12' E 009°19'213.3
2017-Jun-25 00:30N 43°12' E 009°16'813.3
2017-Jun-24 23:56N 43°14' E 009°06'613.3
2017-Jun-24 23:31N 43°16' E 008°59'713.5
2017-Jun-24 22:58N 43°18' E 008°49'2513.2
2017-Jun-24 21:05N 43°25' E 008°16'213.3
2017-Jun-24 20:56N 43°26' E 008°14'47 2.2
2017-Jun-23 23:35N 43°29' E 007°09'112.5
2017-Jun-23 23:30N 43°28' E 007°08'612.4
2017-Jun-23 23:00N 43°24' E 007°02'  
2017-Jun-20 14:48N 43°15' E 006°44'1 0.2
2017-Jun-20 10:30N 43°15' E 006°44'15 1.3
2017-Jun-19 23:12N 43°25' E 006°59'313.1
2017-Jun-19 23:00N 43°27' E 007°02'1013.2
2017-Jun-19 22:15N 43°34' E 007°12'513.1
2017-Jun-19 21:54N 43°37' E 007°16'6 1.3
2017-Jun-19 16:45N 43°42' E 007°21'0 0.0
2017-Jun-19 16:30N 43°42' E 007°21'0 0.0
2017-Jun-19 16:00N 43°42' E 007°21'0 0.0
2017-Jun-19 15:30N 43°42' E 007°21'0 0.0
2017-Jun-19 15:00N 43°42' E 007°21'0 0.0
2017-Jun-19 14:30N 43°42' E 007°21'11 0.6
2017-Jun-18 18:35N 43°34' E 007°10'2 9.9
2017-Jun-18 18:25N 43°33' E 007°09'2 0.3
2017-Jun-18 11:31N 43°33' E 007°06'0 2.7
2017-Jun-18 11:26N 43°33' E 007°06'5 7.5
2017-Jun-18 10:46N 43°36' E 007°11'310.8
2017-Jun-18 10:30N 43°37' E 007°15'713.6
2017-Jun-18 10:00N 43°34' E 007°24'1213.1
2017-Jun-18 09:04N 43°34' E 007°41'113.1
2017-Jun-18 09:01N 43°35' E 007°41'23 2.5
2017-Jun-17 23:47N 43°53' E 008°01'0 0.0
2017-Jun-17 23:26N 43°53' E 008°01'0 0.0
2017-Jun-17 16:44N 43°53' E 008°01'0 0.0
2017-Jun-17 06:59N 43°53' E 008°01'0 0.0
2017-Jun-17 06:26N 43°53' E 008°01'0 0.0
2017-Jun-17 05:56N 43°53' E 008°01'0 0.0
2017-Jun-17 05:29N 43°53' E 008°01'0 0.0
2017-Jun-17 04:56N 43°53' E 008°01'0 0.0
2017-Jun-17 04:14N 43°53' E 008°01'0 0.0
2017-Jun-17 03:53N 43°53' E 008°01'0 0.0
2017-Jun-17 03:23N 43°53' E 008°01'0 0.0
2017-Jun-17 02:53N 43°53' E 008°01'0 0.0
2017-Jun-16 20:47N 43°53' E 008°01'0 0.0
2017-Jun-16 20:26N 43°53' E 008°01'0 0.0
2017-Jun-16 19:59N 43°53' E 008°01'0 0.0
2017-Jun-16 19:29N 43°53' E 008°01'0 0.0
2017-Jun-16 18:59N 43°53' E 008°01'0 0.0
2017-Jun-16 18:29N 43°53' E 008°01'0 0.0
2017-Jun-16 17:56N 43°53' E 008°01'0 0.0
2017-Jun-16 17:29N 43°53' E 008°01'0 0.0
2017-Jun-16 16:44N 43°53' E 008°01'0 0.0
2017-Jun-16 16:29N 43°53' E 008°01'0 0.0
2017-Jun-16 15:56N 43°53' E 008°01'0 0.0
2017-Jun-16 15:20N 43°53' E 008°01'0 0.0
2017-Jun-16 14:50N 43°53' E 008°01'0 0.0
2017-Jun-16 14:08N 43°53' E 008°01'0 0.0
2017-Jun-16 13:20N 43°53' E 008°01'0 0.0
2017-Jun-16 12:35N 43°53' E 008°01'0 0.0
2017-Jun-16 12:26N 43°53' E 008°01'0 0.0
2017-Jun-16 11:26N 43°53' E 008°01'0 0.0
2017-Jun-16 10:59N 43°53' E 008°01'0 0.0
2017-Jun-16 10:29N 43°53' E 008°01'0 0.0
2017-Jun-16 09:53N 43°53' E 008°01'0 0.0
2017-Jun-16 09:26N 43°53' E 008°01'0 0.0
2017-Jun-16 08:56N 43°53' E 008°01'0 0.0
2017-Jun-16 08:29N 43°53' E 008°01'0 0.0
2017-Jun-16 07:53N 43°53' E 008°01'0 0.0
2017-Jun-16 04:35N 43°53' E 008°01'0 0.0
2017-Jun-16 04:20N 43°53' E 008°01'0 0.0
2017-Jun-16 03:59N 43°53' E 008°01'0 0.0
2017-Jun-16 03:26N 43°53' E 008°01'0 0.0
2017-Jun-16 02:47N 43°53' E 008°01'0 0.0
2017-Jun-16 02:29N 43°53' E 008°01'0 0.0
2017-Jun-16 00:38N 43°53' E 008°01'0 0.0
2017-Jun-16 00:17N 43°53' E 008°01'0 0.0
2017-Jun-15 22:35N 43°53' E 008°01'0 0.0
2017-Jun-15 22:29N 43°53' E 008°01'0 0.0
2017-Jun-15 21:56N 43°53' E 008°01'0 0.0
2017-Jun-15 15:46N 43°53' E 008°01'0 0.0
2017-Jun-15 15:28N 43°53' E 008°01'  

Dump ship's entire track history